Main page
METAR-TAF:

METAR-TAF

Airports :

Prince Rupert Airport

Prince Rupert, British Columbia, Canada

latitude: 54-18N, longitude: 130-26W, elevation: 112 ft

Current weather observation

The report was made 50 minutes ago, at 03:00 UTC
Wind 3 mph from the West
Temperature 57°F
Humidity 82%
Pressure 30.07 in. Hg
Visibility: 9 miles
Clear sky

METAR: CYPR 210300Z AUTO 28003KT 9SM CLR 14/11 A3007 RMK SLP184

Time: 20:50 (03:50 UTC)

Forecast

The report was made 3 hours and 10 minutes ago, at 00:40 UTC
Forecast valid from 21 at 01 UTC to 21 at 13 UTC
Wind 7 mph from the West
Visibility: 6 miles
Few clouds at a height of 600 ft
From 21 at 0900 UTC
Wind 6 mph from the East
Visibility: 6 miles
Few clouds at a height of 500 ft
Scattered clouds at a height of 8000 ft

TAF: CYPR 210040Z 2101/2113 28006KT P6SM FEW006 FM210900 10005KT P6SM FEW005 SCT080 RMK FCST BASED ON AUTO OBS. NXT FCST BY 210700Z

Weather observations and forecasts of more than 4000 airports (METAR and TAF reports).

The available stations are represented by yellow and red dots on the map.

Hover mouse over dot to see the name of the station.

Then click to see weather observations and forecasts.

To change the map : click on the green buttons with a black cross to zoom in, on the green button with a dash to zoom out, or on the green arrows for adjacent maps.


METAR-TAF: